DAL65 KLAX-NZAA
Flight info
| Callsign | DAL65 |
|---|---|
| Flight time | N/A |
| Altitude | 34000 |
| Route | SUMMR2 FICKY B577 LENNA DCT 29N125W 26N130W/N0492F360 23N135W 19N140W 14N145W 10N150W/N0493F380 05N154W 00N158W 05S162W 10S167W/N0484F400 DCT DARMA DCT 15S171W 20S175W 25S179W 30S179E DCT ELPAK |
| Aircraft | A359/H-SDE2E3GHIJ3J4J5LM1ORWXY/LB1D1 |
Departure
| Time | 2026-04-23 19:05 |
|---|---|
| Airport | Los Angeles International Airport (KLAX) |
Arrival
| Time | N/A |
|---|---|
| Airport | Auckland International Airport (NZAA) |
| Time | Latitude | Longitude | Altitude | Speed | Heading |
|---|---|---|---|---|---|
| 2026-04-23 18:30 | 33.94604 | -118.40819 | 101 ft | 0 kts | 112° |
| 2026-04-23 18:51 | 33.94608 | -118.40831 | 101 ft | 2 kts | 101° |
| 2026-04-23 18:51 | 33.94610 | -118.40850 | 101 ft | 2 kts | 89° |
| 2026-04-23 18:51 | 33.94607 | -118.40870 | 99 ft | 2 kts | 61° |
| 2026-04-23 18:52 | 33.94597 | -118.40885 | 99 ft | 2 kts | 32° |
| 2026-04-23 18:52 | 33.94583 | -118.40892 | 98 ft | 2 kts | 7° |
| 2026-04-23 18:52 | 33.94579 | -118.40893 | 98 ft | 0 kts | 359° |
| 2026-04-23 18:57 | 33.94588 | -118.40893 | 104 ft | 4 kts | 357° |
| 2026-04-23 18:57 | 33.94635 | -118.40899 | 102 ft | 8 kts | 353° |
| 2026-04-23 18:57 | 33.94692 | -118.40907 | 102 ft | 8 kts | 353° |
| 2026-04-23 18:58 | 33.94743 | -118.40898 | 105 ft | 7 kts | 21° |
| 2026-04-23 18:58 | 33.94785 | -118.40885 | 105 ft | 5 kts | 12° |
| 2026-04-23 18:58 | 33.94816 | -118.40868 | 106 ft | 5 kts | 34° |
| 2026-04-23 18:58 | 33.94834 | -118.40836 | 106 ft | 5 kts | 66° |
| 2026-04-23 18:59 | 33.94842 | -118.40789 | 106 ft | 6 kts | 79° |
| 2026-04-23 18:59 | 33.94851 | -118.40735 | 106 ft | 7 kts | 78° |
| 2026-04-23 18:59 | 33.94859 | -118.40679 | 106 ft | 7 kts | 85° |
| 2026-04-23 18:59 | 33.94863 | -118.40617 | 106 ft | 8 kts | 85° |
| 2026-04-23 19:00 | 33.94870 | -118.40532 | 106 ft | 15 kts | 83° |
| 2026-04-23 19:00 | 33.94885 | -118.40392 | 106 ft | 17 kts | 83° |
| 2026-04-23 19:00 | 33.94900 | -118.40249 | 106 ft | 17 kts | 82° |
| 2026-04-23 19:00 | 33.94913 | -118.40116 | 106 ft | 16 kts | 84° |
| 2026-04-23 19:01 | 33.94925 | -118.39985 | 105 ft | 15 kts | 82° |
| 2026-04-23 19:01 | 33.94968 | -118.39919 | 109 ft | 5 kts | 22° |
| 2026-04-23 19:01 | 33.94978 | -118.39917 | 110 ft | 0 kts | 13° |
| 2026-04-23 19:02 | 33.94988 | -118.39915 | 112 ft | 5 kts | 8° |
| 2026-04-23 19:02 | 33.95040 | -118.39928 | 113 ft | 2 kts | 333° |
| 2026-04-23 19:02 | 33.95042 | -118.39930 | 112 ft | 1 kts | 331° |
| 2026-04-23 19:02 | 33.95047 | -118.39968 | 111 ft | 9 kts | 262° |
| 2026-04-23 19:03 | 33.95043 | -118.39989 | 112 ft | 0 kts | 255° |
| 2026-04-23 19:03 | 33.95039 | -118.40007 | 112 ft | 1 kts | 256° |
| 2026-04-23 19:03 | 33.95039 | -118.40009 | 112 ft | 0 kts | 257° |
| 2026-04-23 19:04 | 33.95032 | -118.40047 | 113 ft | 21 kts | 257° |
| 2026-04-23 19:04 | 33.94978 | -118.40439 | 112 ft | 71 kts | 265° |
| 2026-04-23 19:04 | 33.94912 | -118.41232 | 114 ft | 118 kts | 263° |
| 2026-04-23 19:04 | 33.94794 | -118.42373 | 114 ft | 158 kts | 263° |
| 2026-04-23 19:05 | 33.94658 | -118.43739 | 507 ft | 160 kts | 263° |
| 2026-04-23 19:05 | 33.94521 | -118.45070 | 953 ft | 161 kts | 262° |
| 2026-04-23 19:05 | 33.94364 | -118.46391 | 1348 ft | 162 kts | 261° |
| 2026-04-23 19:05 | 33.94179 | -118.47756 | 1575 ft | 170 kts | 260° |
| 2026-04-23 19:06 | 33.93994 | -118.49218 | 1804 ft | 183 kts | 263° |
| 2026-04-23 19:06 | 33.93982 | -118.50802 | 2034 ft | 195 kts | 275° |
| 2026-04-23 19:06 | 33.94142 | -118.52495 | 2263 ft | 211 kts | 275° |
| 2026-04-23 19:06 | 33.94088 | -118.54320 | 2406 ft | 231 kts | 262° |
| 2026-04-23 19:07 | 33.93843 | -118.56324 | 2634 ft | 249 kts | 263° |
| 2026-04-23 19:07 | 33.93633 | -118.58456 | 2992 ft | 261 kts | 265° |
| 2026-04-23 19:07 | 33.93476 | -118.60646 | 3419 ft | 268 kts | 267° |
| 2026-04-23 19:07 | 33.93337 | -118.62895 | 3995 ft | 269 kts | 267° |
| 2026-04-23 19:08 | 33.93241 | -118.64401 | 4377 ft | 271 kts | 266° |
| 2026-04-23 19:08 | 33.93054 | -118.66678 | 4956 ft | 274 kts | 265° |
| 2026-04-23 19:08 | 33.92788 | -118.69706 | 5735 ft | 275 kts | 265° |
| 2026-04-23 19:08 | 33.92658 | -118.71227 | 6161 ft | 275 kts | 265° |
| 2026-04-23 19:09 | 33.92468 | -118.73536 | 6783 ft | 276 kts | 266° |
| 2026-04-23 19:09 | 33.92225 | -118.76577 | 7643 ft | 275 kts | 265° |
| 2026-04-23 19:09 | 33.92102 | -118.78125 | 8103 ft | 274 kts | 266° |
| 2026-04-23 19:09 | 33.91924 | -118.80377 | 8784 ft | 273 kts | 266° |
| 2026-04-23 19:10 | 33.91754 | -118.82659 | 9468 ft | 272 kts | 268° |
| 2026-04-23 19:10 | 33.91738 | -118.84931 | 10123 ft | 272 kts | 272° |
| 2026-04-23 19:10 | 33.91802 | -118.87256 | 10453 ft | 284 kts | 273° |
| 2026-04-23 19:10 | 33.91881 | -118.89690 | 10710 ft | 298 kts | 273° |
| 2026-04-23 19:11 | 33.91961 | -118.92246 | 10959 ft | 312 kts | 272° |
| 2026-04-23 19:11 | 33.92042 | -118.94915 | 11204 ft | 325 kts | 272° |
| 2026-04-23 19:11 | 33.92068 | -118.97671 | 11450 ft | 338 kts | 269° |
| 2026-04-23 19:11 | 33.91869 | -119.00552 | 11661 ft | 351 kts | 263° |
| 2026-04-23 19:12 | 33.91366 | -119.03484 | 11905 ft | 363 kts | 256° |
| 2026-04-23 19:12 | 33.90540 | -119.06388 | 12305 ft | 369 kts | 250° |
| 2026-04-23 19:12 | 33.89535 | -119.09208 | 12813 ft | 371 kts | 249° |
| 2026-04-23 19:12 | 33.88486 | -119.12061 | 13356 ft | 372 kts | 249° |
| 2026-04-23 19:13 | 33.87434 | -119.14921 | 13878 ft | 373 kts | 249° |
| 2026-04-23 19:13 | 33.86393 | -119.17766 | 14291 ft | 376 kts | 249° |
| 2026-04-23 19:13 | 33.85338 | -119.20653 | 14720 ft | 378 kts | 249° |
| 2026-04-23 19:13 | 33.84276 | -119.23558 | 15145 ft | 380 kts | 249° |
| 2026-04-23 19:14 | 33.83210 | -119.26477 | 15569 ft | 382 kts | 249° |
| 2026-04-23 19:14 | 33.82123 | -119.29414 | 16000 ft | 384 kts | 248° |
| 2026-04-23 19:14 | 33.80864 | -119.32261 | 16430 ft | 388 kts | 241° |
| 2026-04-23 19:14 | 33.79319 | -119.34897 | 16835 ft | 393 kts | 234° |
| 2026-04-23 19:15 | 33.77411 | -119.37297 | 17290 ft | 399 kts | 225° |
| 2026-04-23 19:15 | 33.75255 | -119.39442 | 17729 ft | 403 kts | 223° |
| 2026-04-23 19:15 | 33.73046 | -119.41529 | 18167 ft | 405 kts | 222° |
| 2026-04-23 19:15 | 33.70806 | -119.43630 | 18574 ft | 408 kts | 222° |
| 2026-04-23 19:16 | 33.68591 | -119.45706 | 18931 ft | 410 kts | 222° |
| 2026-04-23 19:16 | 33.66329 | -119.47825 | 19318 ft | 412 kts | 222° |
| 2026-04-23 19:16 | 33.64058 | -119.49951 | 19692 ft | 415 kts | 222° |
| 2026-04-23 19:17 | 33.59491 | -119.54222 | 20434 ft | 420 kts | 222° |
| 2026-04-23 19:17 | 33.57173 | -119.56388 | 20808 ft | 422 kts | 222° |
| 2026-04-23 19:17 | 33.54841 | -119.58566 | 21177 ft | 425 kts | 222° |
| 2026-04-23 19:17 | 33.52499 | -119.60751 | 21568 ft | 427 kts | 222° |
| 2026-04-23 19:18 | 33.50172 | -119.62921 | 21942 ft | 430 kts | 222° |
| 2026-04-23 19:18 | 33.47806 | -119.65125 | 22322 ft | 432 kts | 221° |
| 2026-04-23 19:18 | 33.45420 | -119.67347 | 22702 ft | 435 kts | 221° |
| 2026-04-23 19:18 | 33.43020 | -119.69580 | 23088 ft | 438 kts | 221° |
| 2026-04-23 19:19 | 33.38175 | -119.74082 | 23842 ft | 443 kts | 221° |
| 2026-04-23 19:19 | 33.35736 | -119.76347 | 24197 ft | 444 kts | 221° |
| 2026-04-23 19:20 | 33.30824 | -119.80901 | 24920 ft | 447 kts | 221° |
| 2026-04-23 19:20 | 33.28383 | -119.83163 | 25288 ft | 449 kts | 221° |
| 2026-04-23 19:20 | 33.25902 | -119.85459 | 25639 ft | 451 kts | 221° |
| 2026-04-23 19:20 | 33.23415 | -119.87759 | 25983 ft | 452 kts | 221° |
| 2026-04-23 19:21 | 33.20916 | -119.90069 | 26339 ft | 454 kts | 221° |
| 2026-04-23 19:21 | 33.15923 | -119.94679 | 27007 ft | 457 kts | 221° |
| 2026-04-23 19:21 | 33.13392 | -119.97013 | 27346 ft | 459 kts | 221° |
| 2026-04-23 19:22 | 33.10860 | -119.99347 | 27662 ft | 461 kts | 221° |
| 2026-04-23 19:22 | 33.08319 | -120.01687 | 27988 ft | 462 kts | 221° |
| 2026-04-23 19:22 | 33.03233 | -120.06365 | 28566 ft | 465 kts | 221° |
| 2026-04-23 19:23 | 33.00661 | -120.08728 | 28851 ft | 467 kts | 221° |
| 2026-04-23 19:23 | 32.98088 | -120.11091 | 29199 ft | 467 kts | 221° |
| 2026-04-23 19:23 | 32.95518 | -120.13447 | 29652 ft | 464 kts | 221° |
| 2026-04-23 19:24 | 32.90409 | -120.18127 | 30431 ft | 461 kts | 221° |
| 2026-04-23 19:24 | 32.87862 | -120.20459 | 30689 ft | 462 kts | 221° |
| 2026-04-23 19:24 | 32.82756 | -120.25128 | 31198 ft | 463 kts | 221° |
| 2026-04-23 19:25 | 32.77679 | -120.29764 | 31716 ft | 463 kts | 221° |
| 2026-04-23 19:25 | 32.72571 | -120.34421 | 32228 ft | 462 kts | 221° |
| 2026-04-23 19:26 | 32.67469 | -120.39065 | 32725 ft | 462 kts | 221° |
| 2026-04-23 19:26 | 32.64913 | -120.41389 | 32953 ft | 461 kts | 221° |
| 2026-04-23 19:27 | 32.59843 | -120.45995 | 33422 ft | 461 kts | 221° |
| 2026-04-23 19:27 | 32.52222 | -120.52912 | 34101 ft | 460 kts | 221° |
| 2026-04-23 19:28 | 32.47136 | -120.57517 | 34518 ft | 458 kts | 221° |
| 2026-04-23 19:28 | 32.42098 | -120.62073 | 35003 ft | 453 kts | 221° |
| 2026-04-23 19:29 | 32.39593 | -120.64336 | 35233 ft | 451 kts | 222° |
| 2026-04-23 19:29 | 32.34612 | -120.68831 | 35647 ft | 448 kts | 222° |
| 2026-04-23 19:30 | 32.29696 | -120.73263 | 36017 ft | 446 kts | 222° |
| 2026-04-23 19:30 | 32.27231 | -120.75483 | 36198 ft | 444 kts | 222° |
| 2026-04-23 19:30 | 32.22317 | -120.79903 | 36561 ft | 441 kts | 222° |
| 2026-04-23 19:31 | 32.19900 | -120.82074 | 36723 ft | 440 kts | 222° |
| 2026-04-23 19:31 | 32.17465 | -120.84260 | 36892 ft | 438 kts | 222° |
| 2026-04-23 19:31 | 32.15041 | -120.86436 | 37037 ft | 437 kts | 222° |
| 2026-04-23 19:31 | 32.12612 | -120.88614 | 37192 ft | 436 kts | 222° |
| 2026-04-23 19:32 | 32.10193 | -120.90782 | 37334 ft | 434 kts | 222° |
| 2026-04-23 19:32 | 32.07814 | -120.92912 | 37473 ft | 433 kts | 223° |
| 2026-04-23 19:32 | 32.05408 | -120.95065 | 37614 ft | 432 kts | 223° |
| 2026-04-23 19:32 | 32.03012 | -120.97208 | 37742 ft | 431 kts | 223° |
| 2026-04-23 19:33 | 32.00654 | -120.99315 | 37861 ft | 430 kts | 223° |
| 2026-04-23 19:33 | 31.98265 | -121.01449 | 37988 ft | 429 kts | 223° |
| 2026-04-23 19:33 | 31.93512 | -121.05689 | 38199 ft | 426 kts | 223° |
| 2026-04-23 19:34 | 31.88811 | -121.09878 | 38392 ft | 425 kts | 223° |
| 2026-04-23 19:34 | 31.84100 | -121.14070 | 38599 ft | 422 kts | 223° |
| 2026-04-23 19:35 | 31.81756 | -121.16153 | 38693 ft | 422 kts | 223° |
| 2026-04-23 19:35 | 31.79434 | -121.18217 | 38534 ft | 423 kts | 223° |
| 2026-04-23 19:35 | 31.77084 | -121.20303 | 38336 ft | 423 kts | 223° |
| 2026-04-23 19:35 | 31.74735 | -121.22388 | 38144 ft | 422 kts | 223° |
| 2026-04-23 19:36 | 31.72388 | -121.24468 | 37960 ft | 423 kts | 223° |
| 2026-04-23 19:36 | 31.70033 | -121.26556 | 37746 ft | 424 kts | 223° |
| 2026-04-23 19:36 | 31.67700 | -121.28622 | 37577 ft | 424 kts | 223° |
| 2026-04-23 19:36 | 31.65320 | -121.30729 | 37393 ft | 425 kts | 223° |
| 2026-04-23 19:37 | 31.62954 | -121.32821 | 37205 ft | 426 kts | 223° |
| 2026-04-23 19:37 | 31.60581 | -121.34919 | 37027 ft | 427 kts | 223° |
| 2026-04-23 19:37 | 31.58214 | -121.37018 | 36857 ft | 427 kts | 223° |
| 2026-04-23 19:37 | 31.56002 | -121.39257 | 36667 ft | 423 kts | 230° |
| 2026-04-23 19:38 | 31.54062 | -121.41834 | 36493 ft | 420 kts | 236° |
| 2026-04-23 19:38 | 31.52272 | -121.44550 | 36315 ft | 420 kts | 237° |
| 2026-04-23 19:38 | 31.50523 | -121.47314 | 36178 ft | 421 kts | 237° |
| 2026-04-23 19:39 | 31.47082 | -121.52841 | 36160 ft | 422 kts | 237° |
| 2026-04-23 19:39 | 31.43599 | -121.58393 | 36159 ft | 422 kts | 237° |
| 2026-04-23 19:40 | 31.40095 | -121.63929 | 36158 ft | 422 kts | 237° |
| 2026-04-23 19:40 | 31.36586 | -121.69448 | 36212 ft | 423 kts | 237° |
| 2026-04-23 19:41 | 31.33067 | -121.74975 | 36357 ft | 423 kts | 237° |
| 2026-04-23 19:41 | 31.29583 | -121.80440 | 36350 ft | 419 kts | 237° |
| 2026-04-23 19:42 | 31.26089 | -121.85916 | 36357 ft | 419 kts | 237° |
| 2026-04-23 19:42 | 31.22597 | -121.91381 | 36353 ft | 419 kts | 237° |
| 2026-04-23 19:43 | 31.19127 | -121.96805 | 36354 ft | 418 kts | 237° |
| 2026-04-23 19:43 | 31.15636 | -122.02251 | 36355 ft | 418 kts | 237° |
| 2026-04-23 19:44 | 31.12173 | -122.07647 | 36357 ft | 417 kts | 237° |
| 2026-04-23 19:44 | 31.08693 | -122.13063 | 36356 ft | 416 kts | 237° |
| 2026-04-23 19:45 | 31.05214 | -122.18469 | 36357 ft | 415 kts | 236° |
| 2026-04-23 19:45 | 31.01764 | -122.23824 | 36358 ft | 414 kts | 236° |
| 2026-04-23 19:46 | 30.98301 | -122.29191 | 36360 ft | 414 kts | 236° |
| 2026-04-23 19:46 | 30.94838 | -122.34550 | 36361 ft | 413 kts | 236° |
| 2026-04-23 19:47 | 30.91961 | -122.38998 | 36361 ft | 413 kts | 236° |
| 2026-04-23 19:47 | 30.87920 | -122.45234 | 36367 ft | 412 kts | 236° |
| 2026-04-23 19:48 | 30.84487 | -122.50526 | 36366 ft | 411 kts | 236° |
| 2026-04-23 19:48 | 30.81037 | -122.55836 | 36364 ft | 411 kts | 236° |
| 2026-04-23 19:49 | 30.77586 | -122.61142 | 36366 ft | 410 kts | 236° |
| 2026-04-23 19:49 | 30.74158 | -122.66405 | 36366 ft | 410 kts | 236° |
| 2026-04-23 19:50 | 30.70710 | -122.71691 | 36370 ft | 409 kts | 236° |
| 2026-04-23 19:50 | 30.67272 | -122.76956 | 36367 ft | 409 kts | 236° |
| 2026-04-23 19:51 | 30.63834 | -122.82212 | 36367 ft | 408 kts | 236° |
| 2026-04-23 19:51 | 30.60421 | -122.87423 | 36368 ft | 407 kts | 236° |
| 2026-04-23 19:52 | 30.57564 | -122.91782 | 36368 ft | 407 kts | 236° |
| 2026-04-23 19:52 | 30.53550 | -122.97895 | 36367 ft | 406 kts | 236° |
| 2026-04-23 19:53 | 30.50080 | -123.03009 | 36368 ft | 406 kts | 233° |
| 2026-04-23 19:53 | 30.46349 | -123.07948 | 36383 ft | 406 kts | 232° |
| 2026-04-23 19:54 | 30.43237 | -123.12021 | 36387 ft | 405 kts | 232° |
| 2026-04-23 19:54 | 30.39526 | -123.16946 | 36377 ft | 404 kts | 233° |
| 2026-04-23 19:55 | 30.35864 | -123.21853 | 36380 ft | 404 kts | 233° |
| 2026-04-23 19:55 | 30.32193 | -123.26779 | 36369 ft | 403 kts | 233° |
| 2026-04-23 19:56 | 30.28520 | -123.31699 | 36373 ft | 403 kts | 233° |
| 2026-04-23 19:56 | 30.24872 | -123.36576 | 36378 ft | 402 kts | 233° |
| 2026-04-23 19:57 | 30.21224 | -123.41446 | 36377 ft | 402 kts | 233° |
| 2026-04-23 19:57 | 30.17556 | -123.46336 | 36382 ft | 401 kts | 233° |
| 2026-04-23 19:58 | 30.13890 | -123.51219 | 36407 ft | 401 kts | 233° |
| 2026-04-23 19:58 | 30.10254 | -123.56055 | 36408 ft | 400 kts | 233° |
| 2026-04-23 19:59 | 30.06596 | -123.60915 | 36406 ft | 400 kts | 232° |
| 2026-04-23 19:59 | 30.02952 | -123.65752 | 36408 ft | 400 kts | 232° |
| 2026-04-23 20:00 | 29.99301 | -123.70589 | 36406 ft | 399 kts | 232° |
| 2026-04-23 20:00 | 29.95663 | -123.75405 | 36411 ft | 399 kts | 232° |
| 2026-04-23 20:01 | 29.92020 | -123.80220 | 36410 ft | 398 kts | 232° |
| 2026-04-23 20:01 | 29.88382 | -123.85025 | 36413 ft | 401 kts | 232° |
| 2026-04-23 20:02 | 29.84698 | -123.89887 | 36409 ft | 401 kts | 232° |
| 2026-04-23 20:02 | 29.81034 | -123.94709 | 36413 ft | 398 kts | 232° |
| 2026-04-23 20:03 | 29.78013 | -123.98683 | 36417 ft | 397 kts | 232° |